sensor_id;sensor_type;location;lat;lon;timestamp;pressure;altitude;pressure_sealevel;temperature;humidity
39793;BME280;26080;42.264;24.536;2024-01-15T00:01:55;98895.53;;;-5.32;100.00
39793;BME280;26080;42.264;24.536;2024-01-15T00:04:20;98891.25;;;-5.33;100.00
39793;BME280;26080;42.264;24.536;2024-01-15T00:06:46;98882.66;;;-5.41;100.00
39793;BME280;26080;42.264;24.536;2024-01-15T00:09:11;98867.97;;;-5.65;100.00
39793;BME280;26080;42.264;24.536;2024-01-15T00:11:36;98885.03;;;-5.59;100.00
39793;BME280;26080;42.264;24.536;2024-01-15T00:14:02;98879.00;;;-5.64;100.00
39793;BME280;26080;42.264;24.536;2024-01-15T00:16:28;98850.75;;;-5.86;100.00
39793;BME280;26080;42.264;24.536;2024-01-15T00:18:53;98884.91;;;-5.72;100.00
39793;BME280;26080;42.264;24.536;2024-01-15T00:21:19;98879.78;;;-5.73;100.00
39793;BME280;26080;42.264;24.536;2024-01-15T00:23:45;98881.56;;;-5.64;100.00
39793;BME280;26080;42.264;24.536;2024-01-15T00:26:11;98872.31;;;-5.55;100.00
39793;BME280;26080;42.264;24.536;2024-01-15T00:28:37;98845.94;;;-5.55;100.00
39793;BME280;26080;42.264;24.536;2024-01-15T00:31:04;98862.19;;;-5.47;100.00
39793;BME280;26080;42.264;24.536;2024-01-15T00:33:30;98874.19;;;-5.36;100.00
39793;BME280;26080;42.264;24.536;2024-01-15T00:35:55;98869.88;;;-5.46;100.00
39793;BME280;26080;42.264;24.536;2024-01-15T00:38:21;98865.50;;;-5.57;100.00
39793;BME280;26080;42.264;24.536;2024-01-15T00:40:46;98871.59;;;-5.40;100.00
39793;BME280;26080;42.264;24.536;2024-01-15T00:43:12;98869.06;;;-5.39;100.00
39793;BME280;26080;42.264;24.536;2024-01-15T00:45:37;98865.69;;;-5.34;100.00
39793;BME280;26080;42.264;24.536;2024-01-15T00:48:03;98863.13;;;-5.36;100.00
39793;BME280;26080;42.264;24.536;2024-01-15T00:50:29;98871.56;;;-5.45;100.00
39793;BME280;26080;42.264;24.536;2024-01-15T00:52:54;98862.94;;;-5.57;100.00
39793;BME280;26080;42.264;24.536;2024-01-15T00:55:20;98869.72;;;-5.59;100.00
39793;BME280;26080;42.264;24.536;2024-01-15T00:57:45;98871.44;;;-5.57;100.00
39793;BME280;26080;42.264;24.536;2024-01-15T01:00:11;98876.53;;;-5.60;100.00
39793;BME280;26080;42.264;24.536;2024-01-15T01:02:36;98871.34;;;-5.64;100.00
39793;BME280;26080;42.264;24.536;2024-01-15T01:05:02;98866.47;;;-5.46;100.00
39793;BME280;26080;42.264;24.536;2024-01-15T01:07:28;98860.44;;;-5.50;100.00
39793;BME280;26080;42.264;24.536;2024-01-15T01:09:55;98837.28;;;-5.74;100.00
39793;BME280;26080;42.264;24.536;2024-01-15T01:12:20;98847.50;;;-5.70;100.00
39793;BME280;26080;42.264;24.536;2024-01-15T01:14:45;98866.25;;;-5.68;100.00
39793;BME280;26080;42.264;24.536;2024-01-15T01:17:11;98857.69;;;-5.74;100.00
39793;BME280;26080;42.264;24.536;2024-01-15T01:19:36;98864.63;;;-5.59;100.00
39793;BME280;26080;42.264;24.536;2024-01-15T01:22:03;98856.03;;;-5.68;100.00
39793;BME280;26080;42.264;24.536;2024-01-15T01:24:28;98851.88;;;-5.61;100.00
39793;BME280;26080;42.264;24.536;2024-01-15T01:26:54;98852.63;;;-5.67;100.00
39793;BME280;26080;42.264;24.536;2024-01-15T01:29:19;98853.50;;;-5.64;100.00
39793;BME280;26080;42.264;24.536;2024-01-15T01:31:45;98797.13;;;-5.93;100.00
39793;BME280;26080;42.264;24.536;2024-01-15T01:34:13;98857.81;;;-5.60;100.00
39793;BME280;26080;42.264;24.536;2024-01-15T01:36:39;98852.63;;;-5.70;100.00
39793;BME280;26080;42.264;24.536;2024-01-15T01:39:04;98855.13;;;-5.73;100.00
39793;BME280;26080;42.264;24.536;2024-01-15T01:41:30;98856.91;;;-5.66;100.00
39793;BME280;26080;42.264;24.536;2024-01-15T01:43:56;98845.81;;;-5.71;100.00
39793;BME280;26080;42.264;24.536;2024-01-15T01:46:22;98848.38;;;-5.69;100.00
39793;BME280;26080;42.264;24.536;2024-01-15T01:48:48;98837.34;;;-5.67;100.00
39793;BME280;26080;42.264;24.536;2024-01-15T01:51:14;98846.72;;;-5.62;100.00
39793;BME280;26080;42.264;24.536;2024-01-15T01:53:40;98816.69;;;-5.94;100.00
39793;BME280;26080;42.264;24.536;2024-01-15T01:56:07;98828.69;;;-5.79;100.00
39793;BME280;26080;42.264;24.536;2024-01-15T01:58:33;98816.63;;;-6.02;100.00
39793;BME280;26080;42.264;24.536;2024-01-15T02:00:59;98789.31;;;-6.10;100.00
39793;BME280;26080;42.264;24.536;2024-01-15T02:03:30;98830.53;;;-5.64;100.00
39793;BME280;26080;42.264;24.536;2024-01-15T02:05:56;98822.19;;;-5.50;100.00
39793;BME280;26080;42.264;24.536;2024-01-15T02:08:22;98819.63;;;-5.50;100.00
39793;BME280;26080;42.264;24.536;2024-01-15T02:10:47;98791.38;;;-5.73;100.00
39793;BME280;26080;42.264;24.536;2024-01-15T02:13:13;98821.97;;;-5.74;100.00
39793;BME280;26080;42.264;24.536;2024-01-15T02:15:38;98826.94;;;-5.85;100.00
39793;BME280;26080;42.264;24.536;2024-01-15T02:18:05;98826.94;;;-5.85;100.00
39793;BME280;26080;42.264;24.536;2024-01-15T02:20:32;98800.38;;;-6.10;100.00
39793;BME280;26080;42.264;24.536;2024-01-15T02:23:14;98791.88;;;-6.09;100.00
39793;BME280;26080;42.264;24.536;2024-01-15T02:25:45;98830.28;;;-5.92;100.00
39793;BME280;26080;42.264;24.536;2024-01-15T02:28:13;98827.75;;;-5.90;100.00
39793;BME280;26080;42.264;24.536;2024-01-15T02:30:40;98824.34;;;-5.91;100.00
39793;BME280;26080;42.264;24.536;2024-01-15T02:33:09;98816.66;;;-5.97;100.00
39793;BME280;26080;42.264;24.536;2024-01-15T02:35:35;98832.94;;;-5.80;100.00
39793;BME280;26080;42.264;24.536;2024-01-15T02:38:05;98824.44;;;-5.82;100.00
39793;BME280;26080;42.264;24.536;2024-01-15T02:40:31;98787.63;;;-6.08;100.00
39793;BME280;26080;42.264;24.536;2024-01-15T02:42:56;98794.41;;;-6.10;100.00
39793;BME280;26080;42.264;24.536;2024-01-15T02:45:22;98774.69;;;-6.30;100.00
39793;BME280;26080;42.264;24.536;2024-01-15T02:47:48;98823.53;;;-5.87;100.00
39793;BME280;26080;42.264;24.536;2024-01-15T02:50:14;98824.28;;;-6.00;100.00
39793;BME280;26080;42.264;24.536;2024-01-15T02:52:39;98819.97;;;-6.04;100.00
39793;BME280;26080;42.264;24.536;2024-01-15T02:55:05;98819.94;;;-6.06;100.00
39793;BME280;26080;42.264;24.536;2024-01-15T02:57:31;98796.78;;;-6.29;100.00
39793;BME280;26080;42.264;24.536;2024-01-15T02:59:56;98824.97;;;-6.15;100.00
39793;BME280;26080;42.264;24.536;2024-01-15T03:02:22;98821.56;;;-6.15;100.00
39793;BME280;26080;42.264;24.536;2024-01-15T03:04:47;98819.88;;;-6.13;100.00
39793;BME280;26080;42.264;24.536;2024-01-15T03:07:13;98808.84;;;-6.11;100.00
39793;BME280;26080;42.264;24.536;2024-01-15T03:09:38;98799.41;;;-6.19;100.00
39793;BME280;26080;42.264;24.536;2024-01-15T03:12:04;98760.09;;;-6.41;100.00
39793;BME280;26080;42.264;24.536;2024-01-15T03:14:29;98811.56;;;-5.97;100.00
39793;BME280;26080;42.264;24.536;2024-01-15T03:16:55;98809.00;;;-5.97;100.00
39793;BME280;26080;42.264;24.536;2024-01-15T03:19:21;98808.13;;;-5.99;100.00
39793;BME280;26080;42.264;24.536;2024-01-15T03:21:46;98805.56;;;-6.02;100.00
39793;BME280;26080;42.264;24.536;2024-01-15T03:24:12;98817.47;;;-6.01;100.00
39793;BME280;26080;42.264;24.536;2024-01-15T03:26:37;98816.66;;;-5.97;100.00
39793;BME280;26080;42.264;24.536;2024-01-15T03:29:02;98815.06;;;-5.83;100.00
39793;BME280;26080;42.264;24.536;2024-01-15T03:31:28;98813.31;;;-5.90;100.00
39793;BME280;26080;42.264;24.536;2024-01-15T03:33:53;98814.13;;;-5.89;100.00
39793;BME280;26080;42.264;24.536;2024-01-15T03:36:19;98818.38;;;-5.96;100.00
39793;BME280;26080;42.264;24.536;2024-01-15T03:38:44;98825.28;;;-5.80;100.00
39793;BME280;26080;42.264;24.536;2024-01-15T03:41:10;98824.56;;;-5.70;100.00
39793;BME280;26080;42.264;24.536;2024-01-15T03:43:35;98823.56;;;-5.84;100.00
39793;BME280;26080;42.264;24.536;2024-01-15T03:46:01;98821.81;;;-5.91;100.00
39793;BME280;26080;42.264;24.536;2024-01-15T03:48:27;98814.88;;;-6.04;100.00
39793;BME280;26080;42.264;24.536;2024-01-15T03:50:52;98799.47;;;-6.16;100.00
39793;BME280;26080;42.264;24.536;2024-01-15T03:53:18;98819.19;;;-5.99;100.00
39793;BME280;26080;42.264;24.536;2024-01-15T03:55:43;98820.06;;;-5.95;100.00
39793;BME280;26080;42.264;24.536;2024-01-15T03:58:09;98808.06;;;-6.05;100.00
39793;BME280;26080;42.264;24.536;2024-01-15T04:00:34;98790.84;;;-6.24;100.00
39793;BME280;26080;42.264;24.536;2024-01-15T04:02:59;98793.28;;;-6.34;100.00
39793;BME280;26080;42.264;24.536;2024-01-15T04:05:25;98784.81;;;-6.33;100.00
39793;BME280;26080;42.264;24.536;2024-01-15T04:07:50;98786.66;;;-6.18;100.00
39793;BME280;26080;42.264;24.536;2024-01-15T04:10:16;98793.41;;;-6.23;100.00
39793;BME280;26080;42.264;24.536;2024-01-15T04:12:41;98794.22;;;-6.29;100.00
39793;BME280;26080;42.264;24.536;2024-01-15T04:15:07;98781.63;;;-6.15;100.00
39793;BME280;26080;42.264;24.536;2024-01-15T04:17:32;98725.28;;;-6.41;100.00
39793;BME280;26080;42.264;24.536;2024-01-15T04:19:59;98781.53;;;-6.22;100.00
39793;BME280;26080;42.264;24.536;2024-01-15T04:22:25;98778.19;;;-6.17;100.00
39793;BME280;26080;42.264;24.536;2024-01-15T04:24:50;98784.03;;;-6.29;100.00
39793;BME280;26080;42.264;24.536;2024-01-15T04:27:16;98784.03;;;-6.29;100.00
39793;BME280;26080;42.264;24.536;2024-01-15T04:29:41;98778.22;;;-6.15;100.00
39793;BME280;26080;42.264;24.536;2024-01-15T04:32:06;98784.34;;;-5.98;100.00
39793;BME280;26080;42.264;24.536;2024-01-15T04:34:32;98786.75;;;-6.10;100.00
39793;BME280;26080;42.264;24.536;2024-01-15T04:36:57;98786.88;;;-6.01;100.00
39793;BME280;26080;42.264;24.536;2024-01-15T04:39:23;98786.88;;;-6.03;100.00
39793;BME280;26080;42.264;24.536;2024-01-15T04:41:49;98787.66;;;-6.05;100.00
39793;BME280;26080;42.264;24.536;2024-01-15T04:44:14;98780.84;;;-6.06;100.00
39793;BME280;26080;42.264;24.536;2024-01-15T04:46:40;98782.72;;;-5.90;100.00
39793;BME280;26080;42.264;24.536;2024-01-15T04:49:05;98781.84;;;-5.90;100.00
39793;BME280;26080;42.264;24.536;2024-01-15T04:51:31;98775.03;;;-5.93;100.00
39793;BME280;26080;42.264;24.536;2024-01-15T04:53:56;98761.38;;;-6.03;100.00
39793;BME280;26080;42.264;24.536;2024-01-15T04:56:22;98736.50;;;-6.23;100.00
39793;BME280;26080;42.264;24.536;2024-01-15T04:58:47;98738.09;;;-6.32;100.00
39793;BME280;26080;42.264;24.536;2024-01-15T05:01:15;98700.50;;;-6.54;100.00
39793;BME280;26080;42.264;24.536;2024-01-15T05:03:41;98765.38;;;-6.26;100.00
39793;BME280;26080;42.264;24.536;2024-01-15T05:06:07;98768.66;;;-6.35;100.00
39793;BME280;26080;42.264;24.536;2024-01-15T05:08:32;98755.84;;;-6.41;100.00
39793;BME280;26080;42.264;24.536;2024-01-15T05:10:57;98754.16;;;-6.40;100.00
39793;BME280;26080;42.264;24.536;2024-01-15T05:13:23;98734.81;;;-6.23;100.00
39793;BME280;26080;42.264;24.536;2024-01-15T05:15:48;98736.53;;;-6.17;100.00
39793;BME280;26080;42.264;24.536;2024-01-15T05:18:17;98744.09;;;-6.28;100.00
39793;BME280;26080;42.264;24.536;2024-01-15T05:20:42;98728.00;;;-6.22;100.00
39793;BME280;26080;42.264;24.536;2024-01-15T05:23:08;98716.97;;;-6.20;100.00
39793;BME280;26080;42.264;24.536;2024-01-15T05:25:33;98713.72;;;-6.08;100.00
39793;BME280;26080;42.264;24.536;2024-01-15T05:27:59;98712.84;;;-6.10;100.00
39793;BME280;26080;42.264;24.536;2024-01-15T05:30:24;98723.00;;;-6.16;100.00
39793;BME280;26080;42.264;24.536;2024-01-15T05:32:50;98722.91;;;-6.22;100.00
39793;BME280;26080;42.264;24.536;2024-01-15T05:35:15;98733.06;;;-6.29;100.00
39793;BME280;26080;42.264;24.536;2024-01-15T05:37:44;98731.28;;;-6.33;100.00
39793;BME280;26080;42.264;24.536;2024-01-15T05:40:13;98749.88;;;-6.43;100.00
39793;BME280;26080;42.264;24.536;2024-01-15T05:42:39;98766.81;;;-6.45;100.00
39793;BME280;26080;42.264;24.536;2024-01-15T05:45:05;98722.44;;;-6.65;100.00
39793;BME280;26080;42.264;24.536;2024-01-15T05:47:31;98751.47;;;-6.51;100.00
39793;BME280;26080;42.264;24.536;2024-01-15T05:49:57;98753.16;;;-6.53;100.00
39793;BME280;26080;42.264;24.536;2024-01-15T05:52:22;98748.88;;;-6.55;100.00
39793;BME280;26080;42.264;24.536;2024-01-15T05:54:49;98742.97;;;-6.53;100.00
39793;BME280;26080;42.264;24.536;2024-01-15T05:57:15;98745.38;;;-6.64;100.00
39793;BME280;26080;42.264;24.536;2024-01-15T05:59:40;98743.69;;;-6.65;100.00
39793;BME280;26080;42.264;24.536;2024-01-15T06:02:05;98747.91;;;-6.65;100.00
39793;BME280;26080;42.264;24.536;2024-01-15T06:04:31;98741.22;;;-6.57;100.00
39793;BME280;26080;42.264;24.536;2024-01-15T06:06:56;98743.88;;;-6.48;100.00
39793;BME280;26080;42.264;24.536;2024-01-15T06:09:22;98738.06;;;-6.36;100.00
39793;BME280;26080;42.264;24.536;2024-01-15T06:11:47;98734.69;;;-6.34;100.00
39793;BME280;26080;42.264;24.536;2024-01-15T06:14:12;98745.69;;;-6.39;100.00
39793;BME280;26080;42.264;24.536;2024-01-15T06:16:38;98753.28;;;-6.44;100.00
39793;BME280;26080;42.264;24.536;2024-01-15T06:19:03;98771.16;;;-6.39;100.00
39793;BME280;26080;42.264;24.536;2024-01-15T06:21:29;98768.69;;;-6.32;100.00
39793;BME280;26080;42.264;24.536;2024-01-15T06:23:54;98737.06;;;-6.49;100.00
39793;BME280;26080;42.264;24.536;2024-01-15T06:26:22;98761.13;;;-6.22;100.00
39793;BME280;26080;42.264;24.536;2024-01-15T06:28:47;98771.44;;;-6.13;100.00
39793;BME280;26080;42.264;24.536;2024-01-15T06:31:13;98774.84;;;-6.14;100.00
39793;BME280;26080;42.264;24.536;2024-01-15T06:33:38;98775.59;;;-6.20;100.00
39793;BME280;26080;42.264;24.536;2024-01-15T06:36:04;98760.44;;;-6.09;100.00
39793;BME280;26080;42.264;24.536;2024-01-15T06:38:30;98743.44;;;-6.09;100.00
39793;BME280;26080;42.264;24.536;2024-01-15T06:40:56;98745.38;;;-5.82;100.00
39793;BME280;26080;42.264;24.536;2024-01-15T06:43:21;98741.97;;;-5.79;100.00
39793;BME280;26080;42.264;24.536;2024-01-15T06:45:47;98735.19;;;-5.80;100.00
39793;BME280;26080;42.264;24.536;2024-01-15T06:48:12;98743.75;;;-5.74;100.00
39793;BME280;26080;42.264;24.536;2024-01-15T06:50:40;98740.41;;;-5.63;100.00
39793;BME280;26080;42.264;24.536;2024-01-15T06:53:05;98737.16;;;-5.47;100.00
39793;BME280;26080;42.264;24.536;2024-01-15T06:55:31;98740.59;;;-5.41;100.00
39793;BME280;26080;42.264;24.536;2024-01-15T06:57:56;98732.09;;;-5.38;100.00
39793;BME280;26080;42.264;24.536;2024-01-15T07:00:22;98727.06;;;-5.27;100.00
39793;BME280;26080;42.264;24.536;2024-01-15T07:02:47;98727.22;;;-5.04;100.00
39793;BME280;26080;42.264;24.536;2024-01-15T07:05:12;98734.06;;;-4.94;100.00
39793;BME280;26080;42.264;24.536;2024-01-15T07:07:43;98706.81;;;-4.98;100.00
39793;BME280;26080;42.264;24.536;2024-01-15T07:10:09;98735.81;;;-4.89;100.00
39793;BME280;26080;42.264;24.536;2024-01-15T07:12:35;98702.59;;;-4.92;100.00
39793;BME280;26080;42.264;24.536;2024-01-15T07:15:00;98712.00;;;-4.83;100.00
39793;BME280;26080;42.264;24.536;2024-01-15T07:17:27;98733.31;;;-4.78;100.00
39793;BME280;26080;42.264;24.536;2024-01-15T07:20:09;98736.75;;;-4.74;100.00
39793;BME280;26080;42.264;24.536;2024-01-15T07:22:37;98747.88;;;-4.65;100.00
39793;BME280;26080;42.264;24.536;2024-01-15T07:25:03;98746.19;;;-4.60;100.00
39793;BME280;26080;42.264;24.536;2024-01-15T07:27:30;98741.97;;;-4.49;100.00
39793;BME280;26080;42.264;24.536;2024-01-15T07:29:56;98745.38;;;-4.39;100.00
39793;BME280;26080;42.264;24.536;2024-01-15T07:32:24;98746.28;;;-4.32;100.00
39793;BME280;26080;42.264;24.536;2024-01-15T07:34:50;98744.63;;;-4.21;100.00
39793;BME280;26080;42.264;24.536;2024-01-15T07:37:15;98747.19;;;-4.06;100.00
39793;BME280;26080;42.264;24.536;2024-01-15T07:39:41;98753.16;;;-3.99;100.00
39793;BME280;26080;42.264;24.536;2024-01-15T07:42:06;98754.03;;;-3.88;100.00
39793;BME280;26080;42.264;24.536;2024-01-15T07:44:32;98754.91;;;-3.72;100.00
39793;BME280;26080;42.264;24.536;2024-01-15T07:46:58;98754.06;;;-3.59;100.00
39793;BME280;26080;42.264;24.536;2024-01-15T07:49:23;98768.59;;;-3.34;100.00
39793;BME280;26080;42.264;24.536;2024-01-15T07:51:49;98780.53;;;-3.30;100.00
39793;BME280;26080;42.264;24.536;2024-01-15T07:54:14;98757.50;;;-3.25;100.00
39793;BME280;26080;42.264;24.536;2024-01-15T07:57:01;98784.75;;;-2.83;100.00
39793;BME280;26080;42.264;24.536;2024-01-15T07:59:28;98791.56;;;-2.66;100.00
39793;BME280;26080;42.264;24.536;2024-01-15T08:01:53;98790.69;;;-2.56;100.00
39793;BME280;26080;42.264;24.536;2024-01-15T08:04:19;98768.47;;;-2.59;100.00
39793;BME280;26080;42.264;24.536;2024-01-15T08:06:45;98790.59;;;-2.32;100.00
39793;BME280;26080;42.264;24.536;2024-01-15T08:09:11;98751.25;;;-2.31;100.00
39793;BME280;26080;42.264;24.536;2024-01-15T08:11:41;98784.41;;;-1.94;100.00
39793;BME280;26080;42.264;24.536;2024-01-15T08:14:07;98778.34;;;-1.78;100.00
39793;BME280;26080;42.264;24.536;2024-01-15T08:16:32;98767.91;;;-1.57;100.00
39793;BME280;26080;42.264;24.536;2024-01-15T08:18:58;98733.66;;;-1.56;100.00
39793;BME280;26080;42.264;24.536;2024-01-15T08:21:24;98773.59;;;-1.16;100.00
39793;BME280;26080;42.264;24.536;2024-01-15T08:23:49;98772.56;;;-0.99;100.00
39793;BME280;26080;42.264;24.536;2024-01-15T08:26:15;98769.84;;;-0.80;100.00
39793;BME280;26080;42.264;24.536;2024-01-15T08:28:40;98763.69;;;-0.67;100.00
39793;BME280;26080;42.264;24.536;2024-01-15T08:31:06;98756.63;;;-0.50;100.00
39793;BME280;26080;42.264;24.536;2024-01-15T08:33:31;98756.41;;;-0.32;100.00
39793;BME280;26080;42.264;24.536;2024-01-15T08:35:57;98756.28;;;-0.21;100.00
39793;BME280;26080;42.264;24.536;2024-01-15T08:38:22;98745.84;;;-0.10;100.00
39793;BME280;26080;42.264;24.536;2024-01-15T08:40:49;98750.91;;;-0.04;100.00
39793;BME280;26080;42.264;24.536;2024-01-15T08:43:14;98744.84;;;0.02;100.00
39793;BME280;26080;42.264;24.536;2024-01-15T08:45:40;98752.44;;;0.09;100.00
39793;BME280;26080;42.264;24.536;2024-01-15T08:48:05;98750.50;;;0.23;100.00
39793;BME280;26080;42.264;24.536;2024-01-15T08:50:32;98752.09;;;0.34;100.00
39793;BME280;26080;42.264;24.536;2024-01-15T08:52:58;98741.78;;;0.34;100.00
39793;BME280;26080;42.264;24.536;2024-01-15T08:55:24;98726.63;;;0.12;100.00
39793;BME280;26080;42.264;24.536;2024-01-15T08:57:50;98714.47;;;0.23;100.00
39793;BME280;26080;42.264;24.536;2024-01-15T09:00:16;98727.03;;;0.43;100.00
39793;BME280;26080;42.264;24.536;2024-01-15T09:02:44;98690.16;;;0.40;100.00
39793;BME280;26080;42.264;24.536;2024-01-15T09:05:09;98728.34;;;0.69;100.00
39793;BME280;26080;42.264;24.536;2024-01-15T09:07:34;98733.44;;;0.72;100.00
39793;BME280;26080;42.264;24.536;2024-01-15T09:10:00;98739.28;;;0.81;100.00
39793;BME280;26080;42.264;24.536;2024-01-15T09:12:27;98734.16;;;0.80;100.00
39793;BME280;26080;42.264;24.536;2024-01-15T09:14:52;98735.84;;;0.82;100.00
39793;BME280;26080;42.264;24.536;2024-01-15T09:17:19;98728.13;;;0.81;100.00
39793;BME280;26080;42.264;24.536;2024-01-15T09:19:45;98716.72;;;0.94;100.00
39793;BME280;26080;42.264;24.536;2024-01-15T09:22:12;98731.34;;;0.94;100.00
39793;BME280;26080;42.264;24.536;2024-01-15T09:24:40;98712.34;;;0.99;100.00
39793;BME280;26080;42.264;24.536;2024-01-15T09:27:07;98697.59;;;1.06;100.00
39793;BME280;26080;42.264;24.536;2024-01-15T09:29:32;98703.53;;;1.11;100.00
39793;BME280;26080;42.264;24.536;2024-01-15T09:32:04;98716.31;;;1.17;100.00
39793;BME280;26080;42.264;24.536;2024-01-15T09:34:29;98717.94;;;1.21;100.00
39793;BME280;26080;42.264;24.536;2024-01-15T09:36:55;98718.22;;;1.06;100.00
39793;BME280;26080;42.264;24.536;2024-01-15T09:39:23;98690.94;;;0.94;100.00
39793;BME280;26080;42.264;24.536;2024-01-15T09:41:49;98705.53;;;0.97;100.00
39793;BME280;26080;42.264;24.536;2024-01-15T09:44:15;98695.09;;;1.03;100.00
39793;BME280;26080;42.264;24.536;2024-01-15T09:46:41;98667.75;;;0.93;100.00
39793;BME280;26080;42.264;24.536;2024-01-15T09:49:08;98684.59;;;1.12;100.00
39793;BME280;26080;42.264;24.536;2024-01-15T09:51:34;98676.31;;;0.96;100.00
39793;BME280;26080;42.264;24.536;2024-01-15T09:54:02;98671.31;;;0.87;100.00
39793;BME280;26080;42.264;24.536;2024-01-15T09:56:27;98661.34;;;0.69;100.00
39793;BME280;26080;42.264;24.536;2024-01-15T09:58:56;98653.78;;;0.58;100.00
39793;BME280;26080;42.264;24.536;2024-01-15T10:01:23;98644.19;;;0.66;100.00
39793;BME280;26080;42.264;24.536;2024-01-15T10:03:50;98600.38;;;0.66;100.00
39793;BME280;26080;42.264;24.536;2024-01-15T10:06:16;98617.06;;;0.92;100.00
39793;BME280;26080;42.264;24.536;2024-01-15T10:08:50;98602.16;;;1.07;100.00
39793;BME280;26080;42.264;24.536;2024-01-15T10:11:16;98565.19;;;1.07;100.00
39793;BME280;26080;42.264;24.536;2024-01-15T10:13:44;98584.31;;;1.38;100.00
39793;BME280;26080;42.264;24.536;2024-01-15T10:16:10;98534.22;;;1.08;100.00
39793;BME280;26080;42.264;24.536;2024-01-15T10:18:36;98574.56;;;1.51;100.00
39793;BME280;26080;42.264;24.536;2024-01-15T10:21:11;98578.69;;;1.58;100.00
39793;BME280;26080;42.264;24.536;2024-01-15T10:23:36;98563.06;;;1.66;100.00
39793;BME280;26080;42.264;24.536;2024-01-15T10:26:03;98567.03;;;1.79;100.00
39793;BME280;26080;42.264;24.536;2024-01-15T10:28:29;98577.28;;;1.82;100.00
39793;BME280;26080;42.264;24.536;2024-01-15T10:30:57;98580.53;;;1.90;100.00
39793;BME280;26080;42.264;24.536;2024-01-15T10:33:23;98569.50;;;1.84;100.00
39793;BME280;26080;42.264;24.536;2024-01-15T10:35:55;98577.06;;;1.91;100.00
39793;BME280;26080;42.264;24.536;2024-01-15T10:38:22;98580.75;;;1.81;100.00
39793;BME280;26080;42.264;24.536;2024-01-15T10:40:51;98579.72;;;1.88;100.00
39793;BME280;26080;42.264;24.536;2024-01-15T10:43:16;98574.13;;;2.06;100.00
39793;BME280;26080;42.264;24.536;2024-01-15T10:45:45;98565.16;;;2.21;100.00
39793;BME280;26080;42.264;24.536;2024-01-15T10:48:12;98572.16;;;2.16;100.00
39793;BME280;26080;42.264;24.536;2024-01-15T10:50:37;98554.59;;;2.29;100.00
39793;BME280;26080;42.264;24.536;2024-01-15T10:53:04;98543.91;;;2.43;100.00
39793;BME280;26080;42.264;24.536;2024-01-15T10:55:31;98541.59;;;2.32;100.00
39793;BME280;26080;42.264;24.536;2024-01-15T10:57:59;98520.34;;;2.53;100.00
39793;BME280;26080;42.264;24.536;2024-01-15T11:00:25;98491.38;;;2.42;100.00
39793;BME280;26080;42.264;24.536;2024-01-15T11:02:51;98487.00;;;2.44;100.00
39793;BME280;26080;42.264;24.536;2024-01-15T11:05:21;98511.81;;;2.51;100.00
39793;BME280;26080;42.264;24.536;2024-01-15T11:07:48;98505.88;;;2.48;100.00
39793;BME280;26080;42.264;24.536;2024-01-15T11:10:39;98506.38;;;2.60;100.00
39793;BME280;26080;42.264;24.536;2024-01-15T11:13:53;98499.47;;;2.61;100.00
39793;BME280;26080;42.264;24.536;2024-01-15T11:16:04;98490.22;;;2.52;100.00
39793;BME280;26080;42.264;24.536;2024-01-15T11:18:35;98495.44;;;2.51;100.00
39793;BME280;26080;42.264;24.536;2024-01-15T11:29:40;98459.84;;;2.60;98.18
39793;BME280;26080;42.264;24.536;2024-01-15T11:34:12;98482.13;;;2.94;97.45
39793;BME280;26080;42.264;24.536;2024-01-15T11:41:57;98478.50;;;3.27;97.91
39793;BME280;26080;42.264;24.536;2024-01-15T11:44:23;98470.63;;;3.32;97.04
39793;BME280;26080;42.264;24.536;2024-01-15T11:47:03;98482.38;;;3.42;96.72
39793;BME280;26080;42.264;24.536;2024-01-15T11:52:20;98500.00;;;3.31;97.92
39793;BME280;26080;42.264;24.536;2024-01-15T11:57:47;98486.69;;;3.42;97.53
39793;BME280;26080;42.264;24.536;2024-01-15T12:00:15;98483.69;;;3.27;97.16
39793;BME280;26080;42.264;24.536;2024-01-15T12:02:47;98473.44;;;3.24;95.74
39793;BME280;26080;42.264;24.536;2024-01-15T12:05:17;98461.59;;;3.17;96.30
39793;BME280;26080;42.264;24.536;2024-01-15T12:07:45;98431.03;;;3.02;95.94
39793;BME280;26080;42.264;24.536;2024-01-15T12:10:20;98450.63;;;3.09;96.55
39793;BME280;26080;42.264;24.536;2024-01-15T12:13:05;98444.56;;;3.10;97.64
39793;BME280;26080;42.264;24.536;2024-01-15T12:15:32;98441.06;;;3.11;97.28
39793;BME280;26080;42.264;24.536;2024-01-15T12:18:02;98382.47;;;2.82;98.51
39793;BME280;26080;42.264;24.536;2024-01-15T12:20:31;98430.56;;;3.17;99.30
39793;BME280;26080;42.264;24.536;2024-01-15T12:22:58;98444.22;;;3.21;98.44
39793;BME280;26080;42.264;24.536;2024-01-15T12:25:24;98446.56;;;3.28;97.49
39793;BME280;26080;42.264;24.536;2024-01-15T12:27:52;98425.56;;;3.11;96.59
39793;BME280;26080;42.264;24.536;2024-01-15T12:30:18;98448.34;;;3.26;96.87
39793;BME280;26080;42.264;24.536;2024-01-15T12:32:44;98445.59;;;3.33;96.52
39793;BME280;26080;42.264;24.536;2024-01-15T12:35:10;98436.59;;;3.44;96.94
39793;BME280;26080;42.264;24.536;2024-01-15T12:37:39;98437.72;;;3.62;96.50
39793;BME280;26080;42.264;24.536;2024-01-15T12:40:06;98428.84;;;3.69;96.63
39793;BME280;26080;42.264;24.536;2024-01-15T12:42:41;98435.75;;;3.70;95.49
39793;BME280;26080;42.264;24.536;2024-01-15T12:45:08;98437.88;;;3.82;93.68
39793;BME280;26080;42.264;24.536;2024-01-15T12:47:34;98433.53;;;3.84;94.02
39793;BME280;26080;42.264;24.536;2024-01-15T12:50:01;98436.19;;;3.81;95.33
39793;BME280;26080;42.264;24.536;2024-01-15T12:52:27;98421.50;;;3.82;94.77
39793;BME280;26080;42.264;24.536;2024-01-15T12:54:52;98426.84;;;3.77;94.03
39793;BME280;26080;42.264;24.536;2024-01-15T12:57:18;98417.88;;;3.88;93.48
39793;BME280;26080;42.264;24.536;2024-01-15T12:59:44;98422.78;;;3.95;93.88
39793;BME280;26080;42.264;24.536;2024-01-15T13:02:13;98412.59;;;3.91;93.73
39793;BME280;26080;42.264;24.536;2024-01-15T13:04:39;98417.53;;;3.97;94.55